Terminal Aerodrome Forecast
Issued by NWS

Current Version | Previous Version | Text Only | Print | Product List | Glossary On
Versions: 1 2 3 4 5 6 7 8 9 10 11 12 13 14 15 16 17 18
000
FTUS44 KTSA 271100
TAFRVS
TAF
KRVS 271120Z 2712/2812 36008KT P6SM BKN100
     FM271400 02010G17KT P6SM BKN015 OVC070
     FM271700 02010KT P6SM SCT015 BKN100
     FM280100 VRB03KT P6SM BKN150
     FM280600 16004KT P6SM BKN250=

USA.gov is the U.S. government's official web portal to all federal, state and local government web resources and services.